Time;durP1;ratioP1;P1;durP2;ratioP2;P2;SDS_P1;SDS_P2;PMS_P1;PMS_P2;Temp;Humidity;BMP_temperature;BMP_pressure;BME280_temperature;BME280_humidity;BME280_pressure;Samples;Min_cycle;Max_cycle;Signal;HPM_P1;HPM_P2
2022/01/11 00:00:36;;;;;;;36.58;20.00;;;0.30;99.90;;;;;;4991780;28;20100;-54
2022/01/11 00:03:03;;;;;;;33.35;19.85;;;0.30;99.90;;;;;;4959743;28;20042;-51
2022/01/11 00:05:53;;;;;;;35.92;20.92;;;0.30;99.90;;;;;;4993785;28;20027;-51
2022/01/11 00:08:28;;;;;;;37.47;20.35;;;0.30;99.90;;;;;;4984537;28;20057;-52
2022/01/11 00:11:02;;;;;;;39.83;21.40;;;0.30;99.90;;;;;;4958474;28;20042;-52
2022/01/11 00:13:28;;;;;;;35.97;20.33;;;0.30;99.90;;;;;;4991743;28;20522;-51
2022/01/11 00:15:54;;;;;;;35.78;21.33;;;0.30;99.90;;;;;;4991661;28;20046;-51
2022/01/11 00:18:19;;;;;;;38.45;21.00;;;0.30;99.90;;;;;;4991950;28;20034;-52
2022/01/11 00:20:45;;;;;;;41.15;20.60;;;0.30;99.90;;;;;;4992307;28;20085;-52
2022/01/11 00:25:41;;;;;;;39.10;21.17;;;0.30;99.90;;;;;;4992207;28;20060;-50
2022/01/11 00:28:08;;;;;;;40.05;21.80;;;0.30;99.90;;;;;;4958842;28;20038;-52
2022/01/11 00:30:37;;;;;;;41.50;20.77;;;0.30;99.90;;;;;;4991264;28;20514;-51
2022/01/11 00:33:07;;;;;;;40.13;21.98;;;0.30;99.90;;;;;;4974695;28;20098;-51
2022/01/11 00:35:41;;;;;;;41.42;23.73;;;0.30;99.90;;;;;;4991835;28;20046;-51
2022/01/11 00:38:09;;;;;;;40.60;21.98;;;0.30;99.90;;;;;;4991567;28;20507;-51
2022/01/11 00:40:35;;;;;;;41.17;22.10;;;0.30;99.90;;;;;;4991753;28;20074;-51
2022/01/11 00:43:02;;;;;;;40.40;21.95;;;0.30;99.90;;;;;;4991606;28;20138;-51
2022/01/11 00:45:27;;;;;;;40.35;21.80;;;0.20;99.90;;;;;;4957798;28;20043;-51
2022/01/11 00:47:56;;;;;;;40.78;22.80;;;0.20;99.90;;;;;;4991944;28;20034;-51
2022/01/11 00:50:22;;;;;;;42.30;22.15;;;0.30;99.90;;;;;;4991823;28;20038;-52
2022/01/11 00:52:47;;;;;;;42.67;22.70;;;0.30;99.90;;;;;;4991304;28;20061;-51
2022/01/11 00:55:14;;;;;;;39.55;20.75;;;0.30;99.90;;;;;;4958269;28;20034;-51
2022/01/11 00:57:39;;;;;;;39.75;21.35;;;0.20;99.90;;;;;;4991904;28;20042;-51
2022/01/11 01:00:11;;;;;;;37.30;22.30;;;0.30;99.90;;;;;;4991261;28;20042;-50
2022/01/11 01:02:38;;;;;;;37.38;21.33;;;0.20;99.90;;;;;;4991568;28;20046;-51
2022/01/11 01:05:04;;;;;;;36.50;21.27;;;0.20;99.90;;;;;;4991472;28;20070;-50
2022/01/11 01:07:29;;;;;;;36.70;21.33;;;0.20;99.90;;;;;;4957993;28;20045;-51
2022/01/11 01:10:02;;;;;;;46.60;22.45;;;0.20;99.90;;;;;;4991316;28;20367;-49
2022/01/11 01:12:28;;;;;;;39.65;21.55;;;0.20;99.90;;;;;;4991149;28;20046;-51
2022/01/11 01:14:54;;;;;;;37.20;21.13;;;0.20;99.90;;;;;;4974461;28;20125;-51
2022/01/11 01:17:19;;;;;;;33.58;20.45;;;0.10;99.90;;;;;;4977078;28;20043;-51
2022/01/11 01:19:45;;;;;;;32.63;21.10;;;0.10;99.90;;;;;;4994770;28;20049;-52
2022/01/11 01:22:11;;;;;;;33.88;20.85;;;0.10;99.90;;;;;;4977070;28;20402;-49
2022/01/11 01:24:36;;;;;;;37.28;21.42;;;0.10;99.90;;;;;;4994984;28;20073;-51
2022/01/11 01:27:02;;;;;;;34.63;20.75;;;0.00;99.90;;;;;;4994773;28;20056;-51
2022/01/11 01:29:28;;;;;;;34.17;20.80;;;0.00;99.90;;;;;;4994485;28;20034;-51
2022/01/11 01:31:54;;;;;;;31.95;19.88;;;0.00;99.90;;;;;;4994688;28;20125;-51
2022/01/11 01:34:20;;;;;;;29.92;19.50;;;0.00;99.90;;;;;;4994336;28;20495;-51
2022/01/11 01:36:46;;;;;;;34.63;19.85;;;0.00;99.90;;;;;;4977211;28;20049;-51
2022/01/11 01:39:11;;;;;;;31.15;19.45;;;0.00;99.90;;;;;;4994757;28;20125;-52
2022/01/11 01:41:42;;;;;;;33.88;20.98;;;0.00;99.90;;;;;;4977033;28;20050;-51
2022/01/11 01:44:09;;;;;;;31.60;20.85;;;-0.10;99.90;;;;;;4994569;28;20046;-51
2022/01/11 01:46:34;;;;;;;31.00;19.48;;;0.00;99.90;;;;;;4994638;28;20077;-52
2022/01/11 01:49:01;;;;;;;29.55;19.38;;;0.00;99.90;;;;;;4994391;28;20077;-51
2022/01/11 01:51:28;;;;;;;33.28;19.85;;;0.00;99.90;;;;;;4994833;28;20473;-51
2022/01/11 01:53:55;;;;;;;30.77;18.95;;;-0.10;99.90;;;;;;4994151;28;20042;-52
2022/01/11 01:56:22;;;;;;;56.25;21.65;;;-0.80;99.90;;;;;;4994463;28;20042;-51
2022/01/11 01:58:48;;;;;;;37.60;22.00;;;-0.10;99.90;;;;;;4994513;28;20042;-51
2022/01/11 02:01:14;;;;;;;50.92;22.48;;;-0.10;99.90;;;;;;4994328;28;20548;-51
2022/01/11 02:03:42;;;;;;;56.08;23.80;;;-0.10;99.90;;;;;;4993824;28;20411;-51
2022/01/11 02:06:16;;;;;;;99.57;24.08;;;-0.10;99.90;;;;;;4994301;28;20061;-51
2022/01/11 02:08:44;;;;;;;77.20;24.63;;;-0.10;99.90;;;;;;4993844;28;20108;-51
2022/01/11 02:11:10;;;;;;;85.88;24.13;;;-0.10;99.90;;;;;;4994046;28;20046;-51
2022/01/11 02:13:37;;;;;;;118.43;25.45;;;-0.20;99.90;;;;;;4976660;28;20137;-52
2022/01/11 02:16:04;;;;;;;70.97;24.55;;;-0.10;99.90;;;;;;4994072;28;20074;-52
2022/01/11 02:18:29;;;;;;;74.28;24.25;;;-0.20;99.90;;;;;;4993621;28;20046;-51
2022/01/11 02:20:58;;;;;;;68.55;23.15;;;-0.20;99.90;;;;;;4994138;28;20057;-51
2022/01/11 02:23:25;;;;;;;60.20;23.77;;;-0.20;99.90;;;;;;4993404;28;20463;-52
2022/01/11 02:25:51;;;;;;;65.75;23.02;;;-0.20;99.90;;;;;;4976666;28;20511;-51
2022/01/11 02:28:20;;;;;;;85.22;24.75;;;-0.20;99.90;;;;;;4944213;28;20054;-51
2022/01/11 02:30:46;;;;;;;73.00;23.50;;;-0.30;99.90;;;;;;4993831;28;20089;-50
2022/01/11 02:33:30;;;;;;;56.80;23.08;;;-0.30;99.90;;;;;;4993302;28;20049;-51
2022/01/11 02:35:55;;;;;;;52.10;21.90;;;-0.30;99.90;;;;;;4994055;28;20046;-47
2022/01/11 02:38:21;;;;;;;61.20;24.63;;;-0.40;99.90;;;;;;4993725;28;20042;-47
2022/01/11 02:40:47;;;;;;;49.55;22.58;;;-0.40;99.90;;;;;;4993491;28;20045;-47
2022/01/11 02:43:12;;;;;;;52.67;22.73;;;-0.40;99.90;;;;;;4993616;28;20042;-47
2022/01/11 02:45:38;;;;;;;51.72;23.35;;;-0.30;99.90;;;;;;4974864;28;20580;-48
2022/01/11 02:48:04;;;;;;;54.78;23.13;;;-0.40;99.90;;;;;;4993042;28;20034;-47
2022/01/11 02:50:29;;;;;;;65.25;23.75;;;-0.40;99.90;;;;;;4975808;28;20038;-46
2022/01/11 02:52:55;;;;;;;58.17;24.05;;;-0.40;99.90;;;;;;4976031;28;20402;-48
2022/01/11 02:55:21;;;;;;;54.60;22.80;;;-0.40;99.90;;;;;;4993468;28;20046;-50
2022/01/11 02:57:46;;;;;;;65.68;23.25;;;-0.40;99.90;;;;;;4959366;28;20038;-49
2022/01/11 03:00:15;;;;;;;51.97;22.55;;;-0.30;99.90;;;;;;4993112;28;20450;-49
2022/01/11 03:02:42;;;;;;;61.72;21.85;;;-0.30;99.90;;;;;;4975929;28;20048;-48
2022/01/11 03:05:10;;;;;;;64.75;21.98;;;-0.40;99.90;;;;;;4959874;28;20390;-48
2022/01/11 03:07:36;;;;;;;55.85;21.42;;;-0.40;99.90;;;;;;4993094;28;20038;-51
2022/01/11 03:10:20;;;;;;;55.15;22.50;;;-0.40;99.90;;;;;;4993022;28;20042;-48
2022/01/11 03:12:46;;;;;;;55.38;22.00;;;-0.40;99.90;;;;;;4975348;28;20238;-46
2022/01/11 03:15:13;;;;;;;62.72;23.75;;;-0.40;99.90;;;;;;4992279;28;20042;-47
2022/01/11 03:17:39;;;;;;;59.83;22.45;;;-0.40;99.90;;;;;;4992500;28;20113;-47
2022/01/11 03:20:06;;;;;;;54.58;22.33;;;-0.40;99.90;;;;;;4992804;28;20495;-46
2022/01/11 03:22:31;;;;;;;52.17;23.45;;;-0.40;99.90;;;;;;4992606;28;20031;-48
2022/01/11 03:24:57;;;;;;;51.90;20.58;;;-0.50;99.90;;;;;;4992863;28;20045;-50
2022/01/11 03:27:23;;;;;;;67.03;23.23;;;-0.40;99.90;;;;;;4992864;28;20042;-47
2022/01/11 03:29:51;;;;;;;61.58;22.35;;;-0.40;99.90;;;;;;4992344;28;20597;-47
2022/01/11 03:32:18;;;;;;;57.85;22.52;;;-0.40;99.90;;;;;;4992185;28;20521;-47
2022/01/11 03:34:45;;;;;;;58.58;22.48;;;-0.40;99.90;;;;;;4992693;28;20036;-47
2022/01/11 03:37:14;;;;;;;56.85;23.80;;;-0.30;99.90;;;;;;4992722;28;20042;-49
2022/01/11 03:39:40;;;;;;;56.60;23.30;;;-0.40;99.90;;;;;;4974711;28;20074;-51
2022/01/11 03:42:06;;;;;;;64.18;25.63;;;-0.40;99.90;;;;;;4992309;28;20054;-48
2022/01/11 03:44:31;;;;;;;60.35;24.02;;;-0.40;99.90;;;;;;4991719;28;20120;-49
2022/01/11 03:46:59;;;;;;;53.67;22.85;;;-0.30;99.90;;;;;;4992333;28;20042;-51
2022/01/11 03:49:24;;;;;;;67.80;26.58;;;-0.30;99.90;;;;;;4992467;28;20509;-51
2022/01/11 03:51:50;;;;;;;56.50;24.25;;;-0.20;99.90;;;;;;4992376;28;20069;-50
2022/01/11 03:54:23;;;;;;;54.55;24.20;;;-0.20;99.90;;;;;;4985657;28;20542;-47
2022/01/11 03:56:49;;;;;;;66.50;25.65;;;-0.10;99.90;;;;;;4972830;28;20369;-47
2022/01/11 03:59:15;;;;;;;69.30;26.83;;;-0.10;99.90;;;;;;4989394;28;20038;-48
2022/01/11 04:01:40;;;;;;;62.20;25.95;;;0.10;99.90;;;;;;4991845;28;20088;-49
2022/01/11 04:04:09;;;;;;;59.10;26.45;;;-0.10;99.90;;;;;;4992332;28;20092;-47
2022/01/11 04:06:35;;;;;;;68.57;26.42;;;-0.10;99.90;;;;;;4992317;28;20050;-48
2022/01/11 04:09:01;;;;;;;61.15;25.63;;;-0.10;99.90;;;;;;4991992;28;20049;-50
2022/01/11 04:11:27;;;;;;;59.40;25.20;;;-0.10;99.90;;;;;;4991935;28;20459;-47
2022/01/11 04:13:52;;;;;;;53.55;23.40;;;-0.10;99.90;;;;;;4994035;28;20049;-48
2022/01/11 04:16:18;;;;;;;61.20;25.80;;;0.00;99.90;;;;;;4998720;28;20042;-47
2022/01/11 04:18:43;;;;;;;59.50;25.17;;;0.00;99.90;;;;;;5000125;28;20073;-47
2022/01/11 04:21:09;;;;;;;59.03;25.20;;;0.00;99.90;;;;;;4992329;28;20108;-47
2022/01/11 04:23:35;;;;;;;62.45;25.58;;;0.00;99.90;;;;;;4992002;28;20554;-48
2022/01/11 04:26:01;;;;;;;58.83;22.88;;;0.00;99.90;;;;;;4992109;28;20046;-48
2022/01/11 04:28:27;;;;;;;63.28;24.70;;;0.00;99.90;;;;;;4999826;28;20502;-47
2022/01/11 04:30:59;;;;;;;61.70;25.25;;;0.00;99.90;;;;;;4992153;28;20041;-47
2022/01/11 04:33:29;;;;;;;58.40;25.05;;;0.00;99.90;;;;;;5004600;28;20394;-47
2022/01/11 04:35:55;;;;;;;56.67;24.92;;;-0.10;99.90;;;;;;4991978;28;20089;-47
2022/01/11 04:38:24;;;;;;;51.15;24.23;;;-0.10;99.90;;;;;;4991805;28;20113;-48
2022/01/11 04:40:50;;;;;;;51.90;23.35;;;0.00;99.90;;;;;;4991749;28;20499;-47
2022/01/11 04:43:17;;;;;;;57.88;24.08;;;0.00;99.90;;;;;;5000068;28;20038;-48
2022/01/11 04:45:43;;;;;;;58.47;24.30;;;0.00;99.90;;;;;;4991500;28;20117;-47
2022/01/11 04:48:08;;;;;;;64.60;24.75;;;0.00;99.90;;;;;;4992263;28;20086;-47
2022/01/11 04:50:34;;;;;;;57.20;24.15;;;0.00;99.90;;;;;;4992423;28;20411;-47
2022/01/11 04:53:01;;;;;;;53.45;22.75;;;0.00;99.90;;;;;;4977982;28;20457;-47
2022/01/11 04:55:27;;;;;;;48.97;22.50;;;0.00;99.90;;;;;;4995373;28;20053;-48
2022/01/11 04:57:53;;;;;;;52.70;23.63;;;-0.10;99.90;;;;;;4995509;28;20035;-48
2022/01/11 05:00:21;;;;;;;48.45;21.20;;;0.00;99.90;;;;;;4995683;28;20038;-48
2022/01/11 05:02:47;;;;;;;48.75;21.40;;;0.00;99.90;;;;;;4977761;28;20108;-47
2022/01/11 05:05:15;;;;;;;48.65;21.95;;;0.00;99.90;;;;;;4976959;28;20483;-47
2022/01/11 05:07:42;;;;;;;45.95;19.58;;;0.00;99.90;;;;;;4977797;28;20064;-47
2022/01/11 05:10:08;;;;;;;46.70;21.38;;;0.10;99.90;;;;;;4995386;28;20074;-48
2022/01/11 05:12:34;;;;;;;45.28;21.55;;;0.10;99.90;;;;;;4994380;28;20042;-48
2022/01/11 05:15:00;;;;;;;50.50;21.38;;;0.10;99.90;;;;;;4995289;28;20050;-51
2022/01/11 05:17:25;;;;;;;54.88;22.02;;;0.10;99.90;;;;;;4961769;28;20050;-47
2022/01/11 05:19:51;;;;;;;48.58;22.98;;;0.10;99.90;;;;;;4977653;28;20057;-47
2022/01/11 05:22:17;;;;;;;52.85;22.45;;;0.10;99.90;;;;;;4977388;28;20031;-47
2022/01/11 05:24:43;;;;;;;43.85;21.30;;;0.10;99.90;;;;;;4996085;28;20034;-48
2022/01/11 05:27:09;;;;;;;50.03;22.58;;;0.10;99.90;;;;;;5010035;28;20053;-49
2022/01/11 05:29:34;;;;;;;52.60;22.50;;;0.10;99.90;;;;;;5006835;28;20122;-49
2022/01/11 05:32:02;;;;;;;49.53;22.75;;;0.20;99.90;;;;;;4991462;28;20658;-48
2022/01/11 05:34:28;;;;;;;45.80;21.20;;;0.20;99.90;;;;;;5002799;28;20046;-50
2022/01/11 05:36:53;;;;;;;48.13;22.08;;;0.10;99.90;;;;;;4993965;28;20041;-50
2022/01/11 05:39:19;;;;;;;47.92;22.55;;;0.10;99.90;;;;;;4994492;28;20046;-49
2022/01/11 05:41:45;;;;;;;48.95;21.88;;;0.00;99.90;;;;;;4994995;28;20038;-50
2022/01/11 05:44:10;;;;;;;46.90;20.20;;;0.00;99.90;;;;;;4995972;28;20058;-46
2022/01/11 05:46:37;;;;;;;44.75;21.15;;;0.00;99.90;;;;;;4944912;28;20046;-48
2022/01/11 05:49:03;;;;;;;44.03;21.15;;;0.00;99.90;;;;;;5005094;28;20379;-51
2022/01/11 05:51:29;;;;;;;42.45;19.75;;;0.00;99.90;;;;;;4979209;28;20034;-48
2022/01/11 05:53:56;;;;;;;41.30;19.35;;;0.10;99.90;;;;;;5007376;28;20577;-50
2022/01/11 05:56:21;;;;;;;46.53;22.25;;;0.10;99.90;;;;;;4941711;28;20049;-50
2022/01/11 05:58:47;;;;;;;48.38;20.35;;;0.00;99.90;;;;;;4989798;28;20550;-50
2022/01/11 06:01:14;;;;;;;47.78;22.38;;;0.00;99.90;;;;;;5004381;28;20034;-51
2022/01/11 06:03:40;;;;;;;48.38;21.42;;;0.00;99.90;;;;;;4999166;28;20129;-49
2022/01/11 06:06:05;;;;;;;47.75;21.83;;;0.00;99.90;;;;;;5007628;28;20125;-50
2022/01/11 06:08:31;;;;;;;39.47;20.38;;;0.00;99.90;;;;;;4996150;28;20487;-50
2022/01/11 06:10:57;;;;;;;47.75;20.48;;;-0.10;99.90;;;;;;4994064;28;20513;-48
2022/01/11 06:13:23;;;;;;;42.67;19.50;;;0.00;99.90;;;;;;4976858;28;20070;-50
2022/01/11 06:15:50;;;;;;;48.55;20.80;;;0.00;99.90;;;;;;4994050;28;20042;-47
2022/01/11 06:18:16;;;;;;;40.47;19.48;;;0.00;99.90;;;;;;4993837;28;20050;-48
2022/01/11 06:20:42;;;;;;;41.55;19.63;;;-0.10;99.90;;;;;;5013002;28;20056;-50
2022/01/11 06:23:08;;;;;;;42.70;19.05;;;-0.10;99.90;;;;;;5013545;28;20490;-51
2022/01/11 06:25:34;;;;;;;38.83;17.33;;;0.00;99.90;;;;;;4991355;28;20045;-49
2022/01/11 06:28:00;;;;;;;38.25;18.80;;;0.10;99.90;;;;;;5003884;28;20125;-50
2022/01/11 06:30:25;;;;;;;39.40;18.60;;;-0.10;99.90;;;;;;5008941;28;20518;-50
2022/01/11 06:32:51;;;;;;;36.08;18.27;;;0.00;99.90;;;;;;4993682;28;20030;-49
2022/01/11 06:35:18;;;;;;;40.17;19.38;;;-0.10;99.90;;;;;;4992728;28;20121;-50
2022/01/11 06:37:44;;;;;;;39.45;19.00;;;-0.20;99.90;;;;;;4994434;28;20037;-50
2022/01/11 06:40:12;;;;;;;40.47;18.55;;;-0.20;99.90;;;;;;4995637;28;20101;-51
2022/01/11 06:42:37;;;;;;;36.22;17.60;;;-0.20;99.90;;;;;;4990096;28;20042;-48
2022/01/11 06:45:04;;;;;;;38.05;17.40;;;-0.20;99.90;;;;;;4992807;28;20080;-48
2022/01/11 06:47:30;;;;;;;38.65;17.23;;;-0.10;99.90;;;;;;5001533;28;20403;-49
2022/01/11 06:49:56;;;;;;;35.47;16.63;;;-0.20;99.90;;;;;;4973757;28;20090;-51
2022/01/11 06:52:22;;;;;;;35.45;16.25;;;-0.20;99.90;;;;;;4986978;28;20126;-50
2022/01/11 06:54:48;;;;;;;32.58;15.95;;;-0.20;99.90;;;;;;4975770;28;20045;-48
2022/01/11 06:57:13;;;;;;;32.47;15.35;;;-0.20;99.90;;;;;;4992736;28;20030;-50
2022/01/11 06:59:39;;;;;;;28.77;15.00;;;-0.20;99.90;;;;;;4995788;28;20100;-50
2022/01/11 07:02:06;;;;;;;28.40;14.85;;;-0.10;99.90;;;;;;5004067;28;20553;-48
2022/01/11 07:04:32;;;;;;;33.42;15.80;;;-0.20;99.90;;;;;;5012505;28;20088;-47
2022/01/11 07:06:58;;;;;;;29.05;14.88;;;-0.20;99.90;;;;;;5012938;28;20072;-50
2022/01/11 07:09:24;;;;;;;27.52;14.25;;;-0.20;99.90;;;;;;5001041;28;20038;-49
2022/01/11 07:11:50;;;;;;;29.73;14.77;;;-0.20;99.90;;;;;;4991265;28;20153;-48
2022/01/11 07:14:15;;;;;;;32.83;14.90;;;-0.20;99.90;;;;;;4991511;28;20045;-50
2022/01/11 07:16:43;;;;;;;32.05;15.25;;;-0.30;99.90;;;;;;4991853;28;20081;-49
2022/01/11 07:19:09;;;;;;;31.20;14.80;;;-0.20;99.90;;;;;;4961333;28;20430;-50
2022/01/11 07:21:35;;;;;;;36.78;14.45;;;-0.20;99.90;;;;;;4992840;28;20515;-50
2022/01/11 07:24:02;;;;;;;33.33;15.52;;;-0.20;99.90;;;;;;4974422;28;20049;-51
2022/01/11 07:26:28;;;;;;;35.63;16.35;;;-0.20;99.90;;;;;;4978405;28;20038;-49
2022/01/11 07:28:53;;;;;;;31.00;15.80;;;-0.20;99.90;;;;;;4958525;28;20403;-51
2022/01/11 07:31:19;;;;;;;35.22;15.85;;;-0.20;99.90;;;;;;4930166;28;20093;-50
2022/01/11 07:33:45;;;;;;;29.25;14.50;;;-0.20;99.90;;;;;;4956596;28;20042;-47
2022/01/11 07:36:11;;;;;;;29.08;15.15;;;-0.20;99.90;;;;;;4991664;28;20034;-50
2022/01/11 07:38:37;;;;;;;31.48;14.98;;;-0.20;99.90;;;;;;4958361;28;20046;-51
2022/01/11 07:41:05;;;;;;;31.75;14.93;;;-0.20;99.90;;;;;;4991617;28;20457;-48
2022/01/11 07:43:30;;;;;;;31.20;15.50;;;-0.20;99.90;;;;;;4991103;28;20030;-50
2022/01/11 07:45:56;;;;;;;31.90;15.43;;;-0.20;99.90;;;;;;4990918;28;20042;-50
2022/01/11 07:48:21;;;;;;;29.83;15.02;;;-0.20;99.90;;;;;;4990382;28;20562;-47
2022/01/11 07:50:47;;;;;;;30.15;14.60;;;-0.20;99.90;;;;;;4973332;28;20451;-49
2022/01/11 07:53:13;;;;;;;27.27;14.02;;;-0.20;99.90;;;;;;4990729;28;20038;-49
2022/01/11 07:55:38;;;;;;;33.90;15.80;;;-0.10;99.90;;;;;;4991409;28;20077;-49
2022/01/11 07:58:04;;;;;;;32.85;14.88;;;-0.10;99.90;;;;;;4990809;28;20060;-52
2022/01/11 08:00:31;;;;;;;35.53;16.23;;;-0.10;99.90;;;;;;4991238;28;20089;-50
2022/01/11 08:02:56;;;;;;;33.60;15.48;;;-0.10;99.90;;;;;;4990636;28;20038;-51
2022/01/11 08:05:22;;;;;;;31.50;15.73;;;-0.10;99.90;;;;;;4991333;28;20033;-50
2022/01/11 08:07:48;;;;;;;33.95;16.63;;;-0.10;99.90;;;;;;4991106;28;20042;-49
2022/01/11 08:10:17;;;;;;;33.60;16.25;;;-0.10;99.90;;;;;;4990296;28;20096;-50
2022/01/11 08:12:42;;;;;;;37.22;16.38;;;-0.10;99.90;;;;;;4991309;28;20046;-51
2022/01/11 08:15:08;;;;;;;39.05;16.98;;;0.00;99.90;;;;;;4991838;28;20402;-51
2022/01/11 08:17:34;;;;;;;37.00;16.52;;;0.00;99.90;;;;;;4993248;28;20046;-52
2022/01/11 08:19:59;;;;;;;33.95;16.58;;;0.00;99.90;;;;;;4991961;28;20554;-52
2022/01/11 08:22:25;;;;;;;35.60;16.40;;;0.00;99.90;;;;;;4991193;28;20038;-49
2022/01/11 08:24:51;;;;;;;37.45;16.95;;;0.00;99.90;;;;;;4993027;28;20042;-51
2022/01/11 08:27:19;;;;;;;37.90;17.48;;;0.10;99.90;;;;;;4977058;28;20407;-48
2022/01/11 08:29:46;;;;;;;36.22;17.50;;;0.20;99.90;;;;;;4988250;28;20096;-49
2022/01/11 08:32:12;;;;;;;40.42;18.17;;;0.20;99.90;;;;;;4979685;28;20049;-52
2022/01/11 08:34:37;;;;;;;37.58;17.38;;;0.20;99.90;;;;;;4994566;28;20034;-50
2022/01/11 08:37:04;;;;;;;38.17;17.80;;;0.20;99.90;;;;;;4994333;28;20038;-48
2022/01/11 08:39:30;;;;;;;37.03;17.92;;;0.20;99.90;;;;;;4992776;28;20113;-51
2022/01/11 08:41:56;;;;;;;38.75;17.25;;;0.30;99.90;;;;;;4992118;28;20085;-52
2022/01/11 08:44:23;;;;;;;35.30;17.42;;;0.30;99.90;;;;;;4994998;28;20539;-49
2022/01/11 08:46:50;;;;;;;38.33;17.75;;;0.40;99.90;;;;;;5002922;28;20034;-50
2022/01/11 08:49:15;;;;;;;36.50;17.33;;;0.50;99.90;;;;;;4997669;28;20534;-50
2022/01/11 08:51:41;;;;;;;36.80;18.23;;;0.50;99.90;;;;;;5004352;28;20078;-51
2022/01/11 08:54:08;;;;;;;33.58;16.75;;;0.50;99.90;;;;;;5008084;28;20075;-51
2022/01/11 08:56:33;;;;;;;39.53;18.20;;;0.50;99.90;;;;;;5014303;28;20030;-50
2022/01/11 08:58:59;;;;;;;37.97;18.83;;;0.50;99.90;;;;;;5006570;28;20441;-49
2022/01/11 09:01:27;;;;;;;39.80;18.80;;;0.50;99.90;;;;;;5004366;28;20060;-49
2022/01/11 09:03:53;;;;;;;40.75;18.60;;;0.60;99.90;;;;;;4979749;28;20034;-52
2022/01/11 09:06:19;;;;;;;40.47;20.10;;;0.60;99.90;;;;;;4990444;28;20062;-53
2022/01/11 09:08:44;;;;;;;41.03;18.90;;;0.70;99.90;;;;;;4995340;28;20495;-48
2022/01/11 09:11:11;;;;;;;40.03;19.20;;;0.70;99.90;;;;;;4994915;28;20050;-48
2022/01/11 09:13:37;;;;;;;39.50;19.40;;;0.80;99.90;;;;;;4960680;28;20478;-48
2022/01/11 09:16:04;;;;;;;40.00;18.23;;;0.80;99.90;;;;;;4994724;28;20037;-47
2022/01/11 09:18:30;;;;;;;39.83;18.58;;;0.80;99.90;;;;;;4994157;28;20061;-49
2022/01/11 09:21:00;;;;;;;42.20;19.20;;;0.80;99.90;;;;;;4981754;28;20042;-48
2022/01/11 09:23:27;;;;;;;35.00;18.08;;;0.80;99.90;;;;;;4992700;28;20079;-50
2022/01/11 09:25:53;;;;;;;39.00;19.13;;;0.80;99.90;;;;;;4992886;28;20042;-50
2022/01/11 09:28:18;;;;;;;39.60;19.17;;;0.80;99.90;;;;;;4993828;28;20532;-49
2022/01/11 09:30:44;;;;;;;36.78;19.10;;;0.90;99.90;;;;;;4993520;28;20030;-50
2022/01/11 09:33:10;;;;;;;38.33;18.58;;;0.80;99.90;;;;;;5001346;28;20130;-50
2022/01/11 09:35:35;;;;;;;38.00;19.33;;;0.90;99.90;;;;;;4980003;28;20056;-52
2022/01/11 09:38:01;;;;;;;37.80;18.17;;;0.90;99.90;;;;;;4993590;28;20034;-49
2022/01/11 09:40:26;;;;;;;37.88;18.23;;;1.00;99.90;;;;;;5001558;28;20313;-49
2022/01/11 09:42:53;;;;;;;35.22;18.55;;;1.00;99.90;;;;;;5006715;28;20490;-52
2022/01/11 09:45:19;;;;;;;37.53;18.25;;;1.10;99.90;;;;;;5014378;28;20049;-50
2022/01/11 09:47:46;;;;;;;40.67;19.15;;;1.00;99.90;;;;;;4999164;28;20038;-51
2022/01/11 09:50:13;;;;;;;40.35;18.25;;;1.10;99.90;;;;;;4994690;28;20038;-49
2022/01/11 09:52:39;;;;;;;35.50;18.05;;;1.10;99.90;;;;;;4994227;28;20113;-49
2022/01/11 09:55:06;;;;;;;30.88;17.40;;;1.10;99.90;;;;;;4994386;28;20503;-49
2022/01/11 09:57:31;;;;;;;36.20;17.95;;;1.10;99.90;;;;;;4992435;28;20139;-52
2022/01/11 09:59:57;;;;;;;38.58;18.08;;;1.10;99.90;;;;;;4993935;28;20070;-52
2022/01/11 10:02:22;;;;;;;37.13;18.33;;;1.10;99.90;;;;;;4994364;28;20039;-50
2022/01/11 10:04:56;;;;;;;35.10;17.02;;;1.10;99.90;;;;;;5004666;28;20053;-53
2022/01/11 10:07:31;;;;;;;33.67;17.20;;;1.10;99.90;;;;;;5010363;28;20104;-52
2022/01/11 10:09:57;;;;;;;33.95;17.05;;;1.10;99.90;;;;;;4993636;28;20121;-52
2022/01/11 10:12:24;;;;;;;32.63;16.40;;;1.10;99.90;;;;;;4993755;28;20113;-48
2022/01/11 10:14:55;;;;;;;31.92;17.08;;;1.10;99.90;;;;;;4991776;28;20050;-49
2022/01/11 10:17:25;;;;;;;38.13;18.20;;;1.10;99.90;;;;;;4994168;28;20038;-52
2022/01/11 10:20:03;;;;;;;35.97;17.50;;;1.10;99.90;;;;;;4994067;28;20039;-49
2022/01/11 10:22:30;;;;;;;34.47;18.60;;;1.10;99.90;;;;;;4992961;28;20069;-51
2022/01/11 10:24:57;;;;;;;35.17;17.00;;;1.10;99.90;;;;;;4976371;28;20046;-50
2022/01/11 10:27:34;;;;;;;41.83;16.77;;;1.10;99.90;;;;;;4992681;28;20069;-51
2022/01/11 10:30:07;;;;;;;36.28;17.65;;;1.10;99.90;;;;;;4992336;28;20073;-48
2022/01/11 10:32:35;;;;;;;;;;;1.10;99.90;;;;;;4993890;28;20499;-51
2022/01/11 10:35:09;;;;;;;36.13;17.92;;;1.10;99.90;;;;;;4992627;28;19925;-49
2022/01/11 10:37:36;;;;;;;37.60;17.88;;;1.10;99.90;;;;;;4993704;28;20035;-49
2022/01/11 10:40:34;;;;;;;35.47;17.60;;;1.10;99.90;;;;;;4967517;28;20050;-49
2022/01/11 10:43:04;;;;;;;32.55;17.42;;;1.20;99.90;;;;;;4981651;28;20124;-52
2022/01/11 10:45:35;;;;;;;37.92;17.70;;;1.20;99.90;;;;;;4993446;28;20170;-51
2022/01/11 10:48:11;;;;;;;35.20;17.60;;;1.20;99.90;;;;;;4992396;28;20619;-52
2022/01/11 10:50:39;;;;;;;39.17;17.40;;;1.30;99.90;;;;;;4993077;28;20073;-51
2022/01/11 10:53:27;;;;;;;35.67;17.17;;;1.40;99.90;;;;;;4991944;28;20096;-50
2022/01/11 10:55:58;;;;;;;33.95;16.98;;;1.50;99.90;;;;;;4985178;28;20041;-47
2022/01/11 10:58:25;;;;;;;36.53;17.85;;;1.50;99.90;;;;;;4972237;28;20042;-50
2022/01/11 11:00:55;;;;;;;36.72;17.48;;;1.60;99.90;;;;;;4992260;28;20117;-50
2022/01/11 11:03:27;;;;;;;36.28;16.15;;;1.60;99.90;;;;;;4992717;28;20038;-51
2022/01/11 11:05:54;;;;;;;38.38;18.52;;;1.70;99.90;;;;;;4990138;28;20553;-49
2022/01/11 11:08:31;;;;;;;34.95;16.50;;;1.70;99.90;;;;;;4990354;28;20109;-49
2022/01/11 11:10:56;;;;;;;33.20;17.40;;;1.70;99.90;;;;;;4992441;28;20069;-51
2022/01/11 11:13:28;;;;;;;34.05;18.10;;;1.70;99.90;;;;;;4992274;28;20066;-50
2022/01/11 11:16:07;;;;;;;36.50;17.13;;;1.80;99.90;;;;;;4975490;28;20053;-51
2022/01/11 11:18:38;;;;;;;37.33;17.13;;;1.90;99.90;;;;;;4992694;28;20046;-51
2022/01/11 11:21:25;;;;;;;31.55;16.38;;;2.00;99.90;;;;;;4992398;28;20038;-51
2022/01/11 11:23:52;;;;;;;35.05;18.02;;;2.00;99.90;;;;;;4981711;28;20514;-50
2022/01/11 11:26:19;;;;;;;36.53;17.75;;;2.00;99.90;;;;;;4991876;28;20052;-50
2022/01/11 11:28:45;;;;;;;35.05;16.65;;;2.10;99.90;;;;;;4989620;28;20101;-48
2022/01/11 11:31:11;;;;;;;31.48;15.50;;;2.10;99.90;;;;;;4991867;28;20050;-51
2022/01/11 11:33:38;;;;;;;32.63;15.98;;;2.20;99.90;;;;;;4974046;28;20061;-50
2022/01/11 11:36:06;;;;;;;32.63;15.20;;;2.20;99.90;;;;;;4972094;28;20038;-49
2022/01/11 11:38:36;;;;;;;35.55;15.82;;;2.30;99.90;;;;;;4992490;28;20547;-52
2022/01/11 11:41:02;;;;;;;32.22;15.68;;;2.20;99.90;;;;;;4957452;28;20038;-49
2022/01/11 11:43:29;;;;;;;35.88;15.57;;;2.30;99.90;;;;;;4991751;28;20483;-47
2022/01/11 11:45:55;;;;;;;35.60;16.25;;;2.30;99.90;;;;;;4991715;28;20311;-52
2022/01/11 11:48:24;;;;;;;33.40;16.88;;;2.50;99.90;;;;;;4992205;28;20038;-49
2022/01/11 11:50:55;;;;;;;37.45;15.40;;;2.40;99.90;;;;;;4992207;28;20074;-50
2022/01/11 11:53:39;;;;;;;36.05;15.98;;;2.50;99.90;;;;;;4994092;28;20483;-53
2022/01/11 11:56:18;;;;;;;36.38;16.48;;;2.50;99.90;;;;;;4991951;28;20074;-53
2022/01/11 11:58:46;;;;;;;36.45;16.30;;;2.60;99.90;;;;;;4990616;28;20077;-53
2022/01/11 12:01:41;;;;;;;34.28;16.55;;;2.70;99.90;;;;;;4992075;28;20034;-53
2022/01/11 12:04:14;;;;;;;35.90;16.70;;;2.70;99.90;;;;;;4991917;28;20034;-50
2022/01/11 12:06:41;;;;;;;39.50;16.85;;;2.70;99.90;;;;;;4993125;28;20077;-48
2022/01/11 12:09:16;;;;;;;36.22;15.57;;;2.80;99.90;;;;;;5001633;28;20457;-50
2022/01/11 12:11:50;;;;;;;35.20;15.77;;;2.80;99.90;;;;;;4968649;28;20406;-49
2022/01/11 12:14:30;;;;;;;34.55;16.83;;;2.80;99.90;;;;;;4992164;28;20058;-52
2022/01/11 12:16:56;;;;;;;34.08;15.90;;;2.90;99.90;;;;;;4991852;28;20085;-50
2022/01/11 12:19:43;;;;;;;32.65;14.85;;;3.00;99.90;;;;;;4992363;28;20082;-51
2022/01/11 12:22:09;;;;;;;35.42;16.60;;;2.90;99.90;;;;;;4974382;28;20053;-50
2022/01/11 12:24:47;;;;;;;32.33;15.55;;;3.00;99.90;;;;;;4958486;28;20042;-52
2022/01/11 12:27:15;;;;;;;33.65;15.95;;;3.00;99.90;;;;;;4981810;28;20410;-49
2022/01/11 12:30:06;;;;;;;33.05;15.70;;;3.00;99.90;;;;;;4992219;28;20049;-49
2022/01/11 12:32:56;;;;;;;34.60;16.48;;;3.20;99.90;;;;;;4986708;28;20046;-49
2022/01/11 12:35:22;;;;;;;32.03;15.70;;;3.20;99.90;;;;;;4972937;28;20038;-52
2022/01/11 12:37:48;;;;;;;34.35;15.98;;;3.40;99.90;;;;;;4992567;28;20038;-51